< < Back
Terminal Aerodrome Forecast


Current Version              Previous Versions:   1  2  3  4  5  6  7  8  9  

Terminal Aerodrome Forecast

289
FTUS42 KTAE 011120
TAFDHN
TAF
KDHN 011120Z 0112/0212 25006KT 5SM BR SCT250
     FM011500 29007KT P6SM SCT030
     FM011700 26010G15KT P6SM BKN040
     FM020000 20004KT P6SM SCT250
     FM020600 VRB03KT 2SM BR OVC005=



Latest METAR

697
SAUS70 KWBC 020900 RRG
MTRDHN
METAR KDHN 020853Z AUTO 00000KT 4SM BR CLR 16/16 A3014 RMK AO2 SLP202
T01610156 53002


USA.gov is the U.S. government's official web portal to all federal, state and local government web resources and services.